createdAt,value
2018-07-11T00:01:19.083Z,13.27
2018-07-11T00:03:49.945Z,12.00
2018-07-11T00:06:19.884Z,12.57
2018-07-11T00:08:48.629Z,12.70
2018-07-11T00:11:17.380Z,10.60
2018-07-11T00:13:46.927Z,10.83
2018-07-11T00:16:16.245Z,11.90
2018-07-11T00:18:45.054Z,12.53
2018-07-11T00:21:13.964Z,12.13
2018-07-11T00:23:42.734Z,12.73
2018-07-11T00:26:11.996Z,11.37
2018-07-11T00:28:40.769Z,14.90
2018-07-11T00:31:09.632Z,18.27
2018-07-11T00:33:38.373Z,13.57
2018-07-11T00:36:07.142Z,10.67
2018-07-11T00:38:35.926Z,11.60
2018-07-11T00:41:04.735Z,11.60
2018-07-11T00:43:35.161Z,10.57
2018-07-11T00:46:04.659Z,10.10
2018-07-11T00:48:33.673Z,11.07
2018-07-11T00:51:02.811Z,11.30
2018-07-11T00:53:33.158Z,13.43
2018-07-11T00:56:02.614Z,12.73
2018-07-11T00:58:35.173Z,11.30
2018-07-11T01:01:17.670Z,11.50
2018-07-11T01:03:57.734Z,11.40
2018-07-11T01:06:26.502Z,9.93
2018-07-11T01:08:58.208Z,12.37
2018-07-11T01:11:31.381Z,9.60
2018-07-11T01:14:00.109Z,9.70
2018-07-11T01:16:28.994Z,10.03
2018-07-11T01:19:02.279Z,10.37
2018-07-11T01:21:31.605Z,13.10
2018-07-11T01:24:00.447Z,12.40
2018-07-11T01:26:32.221Z,11.63
2018-07-11T01:29:01.066Z,10.77
2018-07-11T01:31:29.821Z,10.20
2018-07-11T01:33:58.983Z,11.33
2018-07-11T01:36:28.082Z,14.47
2018-07-11T01:38:57.200Z,12.93
2018-07-11T01:41:25.979Z,15.07
2018-07-11T01:43:54.730Z,12.57
2018-07-11T01:46:23.491Z,13.23
2018-07-11T01:48:52.258Z,11.80
2018-07-11T01:51:22.819Z,10.13
2018-07-11T01:53:51.585Z,10.80
2018-07-11T01:56:20.289Z,11.17
2018-07-11T01:58:49.008Z,9.70
2018-07-11T02:01:17.738Z,10.70
2018-07-11T02:03:46.469Z,10.60
2018-07-11T02:06:15.268Z,9.90
2018-07-11T02:08:44.170Z,8.30
2018-07-11T02:11:12.952Z,9.97
2018-07-11T02:13:41.902Z,11.23
2018-07-11T02:16:10.822Z,10.47
2018-07-11T02:18:39.623Z,9.77
2018-07-11T02:21:08.360Z,12.43
2018-07-11T02:23:38.751Z,10.67
2018-07-11T02:26:07.549Z,9.80
2018-07-11T02:28:36.276Z,9.13
2018-07-11T02:31:05.210Z,9.03
2018-07-11T02:33:33.943Z,9.87
2018-07-11T02:36:02.670Z,10.47
2018-07-11T02:38:31.414Z,9.17
2018-07-11T02:41:00.143Z,9.30
2018-07-11T02:43:28.890Z,9.93
2018-07-11T02:45:57.667Z,9.30
2018-07-11T02:48:26.426Z,9.83
2018-07-11T02:50:55.182Z,9.07
2018-07-11T02:53:24.817Z,10.50
2018-07-11T02:55:54.079Z,9.37
2018-07-11T02:58:22.803Z,10.47
2018-07-11T03:00:51.545Z,9.47
2018-07-11T03:03:20.562Z,8.43
2018-07-11T03:05:49.274Z,9.97
2018-07-11T03:08:18.833Z,9.43
2018-07-11T03:10:47.883Z,8.43
2018-07-11T03:13:20.713Z,8.80
2018-07-11T03:15:49.443Z,8.90
2018-07-11T03:18:18.152Z,9.37
2018-07-11T03:20:46.879Z,9.90
2018-07-11T03:23:15.629Z,8.70
2018-07-11T03:25:44.393Z,10.30
2018-07-11T03:28:13.106Z,10.40
2018-07-11T03:30:41.952Z,8.60
2018-07-11T03:33:10.675Z,8.40
2018-07-11T03:35:39.386Z,9.83
2018-07-11T03:38:08.175Z,9.60
2018-07-11T03:40:36.903Z,8.10
2018-07-11T03:43:05.631Z,9.50
2018-07-11T03:45:34.696Z,8.00
2018-07-11T03:48:03.461Z,7.20
2018-07-11T03:50:32.264Z,7.73
2018-07-11T03:53:00.994Z,8.73
2018-07-11T03:55:29.738Z,7.77
2018-07-11T03:57:58.639Z,7.93
2018-07-11T04:00:27.350Z,8.70
2018-07-11T04:02:56.883Z,8.30
2018-07-11T04:05:25.603Z,8.90
2018-07-11T04:07:54.360Z,8.00
2018-07-11T04:10:23.134Z,11.93
2018-07-11T04:12:58.523Z,7.83
2018-07-11T04:15:27.317Z,7.43
2018-07-11T04:17:56.294Z,6.77
2018-07-11T04:20:25.337Z,5.90
2018-07-11T04:22:54.119Z,6.50
2018-07-11T04:25:22.986Z,5.00
2018-07-11T04:27:51.726Z,4.63
2018-07-11T04:30:20.457Z,4.70
2018-07-11T04:32:49.178Z,4.47
2018-07-11T04:35:17.916Z,4.57
2018-07-11T04:37:46.834Z,5.10
2018-07-11T04:40:15.567Z,3.83
2018-07-11T04:42:44.281Z,6.13
2018-07-11T04:45:12.991Z,4.60
2018-07-11T04:47:41.731Z,5.37
2018-07-11T04:50:10.446Z,3.93
2018-07-11T04:52:39.174Z,3.90
2018-07-11T04:55:07.914Z,3.93
2018-07-11T04:57:36.648Z,3.80
2018-07-11T05:00:05.467Z,4.60
2018-07-11T05:02:34.219Z,4.80
2018-07-11T05:05:02.934Z,3.60
2018-07-11T05:07:31.663Z,5.53
2018-07-11T05:10:00.372Z,5.10
2018-07-11T05:12:29.128Z,4.40
2018-07-11T05:14:57.858Z,4.30
2018-07-11T05:17:26.598Z,4.50
2018-07-11T05:19:55.322Z,4.70
2018-07-11T05:22:24.025Z,5.80
2018-07-11T05:24:52.773Z,7.07
2018-07-11T05:27:21.496Z,4.67
2018-07-11T05:29:50.222Z,4.07
2018-07-11T05:32:18.918Z,4.63
2018-07-11T05:34:47.658Z,5.70
2018-07-11T05:37:16.570Z,4.60
2018-07-11T05:39:45.314Z,5.17
2018-07-11T05:42:14.053Z,4.50
2018-07-11T05:47:16.710Z,3.60
2018-07-11T05:49:45.443Z,4.23
2018-07-11T05:52:14.201Z,4.93
2018-07-11T05:54:42.885Z,3.63
2018-07-11T05:57:11.578Z,8.63
2018-07-11T05:59:40.262Z,5.60
2018-07-11T06:02:09.001Z,5.10
2018-07-11T06:04:37.694Z,3.60
2018-07-11T06:07:06.487Z,4.07
2018-07-11T06:09:35.186Z,3.30
2018-07-11T06:12:04.092Z,4.67
2018-07-11T06:14:32.844Z,3.90
2018-07-11T06:17:01.847Z,3.47
2018-07-11T06:19:30.598Z,4.87
2018-07-11T06:21:59.339Z,3.73
2018-07-11T06:24:28.055Z,3.52
2018-07-11T06:26:57.205Z,2.90
2018-07-11T06:29:25.922Z,3.20
2018-07-11T06:31:54.648Z,3.20
2018-07-11T06:34:23.358Z,3.12
2018-07-11T06:36:52.282Z,2.58
2018-07-11T06:39:21.101Z,3.58
2018-07-11T06:41:49.974Z,3.42
2018-07-11T06:44:18.702Z,3.47
2018-07-11T06:46:47.462Z,6.13
2018-07-11T06:49:16.191Z,3.70
2018-07-11T06:51:44.979Z,4.03
2018-07-11T06:54:13.727Z,4.47
2018-07-11T06:56:42.652Z,4.60
2018-07-11T06:59:11.418Z,4.93
2018-07-11T07:01:40.133Z,4.23
2018-07-11T07:04:08.882Z,4.20
2018-07-11T07:06:37.610Z,5.97
2018-07-11T07:09:07.129Z,4.60
2018-07-11T07:11:35.949Z,4.00
2018-07-11T07:14:04.689Z,3.50
2018-07-11T07:16:33.486Z,4.07
2018-07-11T07:19:02.191Z,3.20
2018-07-11T07:21:30.917Z,4.83
2018-07-11T07:23:59.678Z,5.80
2018-07-11T07:26:28.393Z,3.90
2018-07-11T07:28:57.134Z,4.00
2018-07-11T07:31:25.892Z,3.80
2018-07-11T07:33:54.609Z,3.70
2018-07-11T07:36:23.318Z,2.87
2018-07-11T07:38:52.038Z,3.90
2018-07-11T07:41:20.777Z,3.37
2018-07-11T07:43:49.550Z,3.10
2018-07-11T07:46:18.342Z,3.70
2018-07-11T07:48:47.179Z,2.80
2018-07-11T07:51:15.966Z,4.13
2018-07-11T07:53:44.707Z,3.23
2018-07-11T07:56:13.467Z,3.10
2018-07-11T07:58:42.297Z,3.52
2018-07-11T08:01:11.023Z,3.30
2018-07-11T08:03:39.801Z,3.60
2018-07-11T08:06:08.536Z,3.55
2018-07-11T08:08:37.294Z,3.85
2018-07-11T08:11:06.095Z,4.35
2018-07-11T08:13:34.842Z,3.50
2018-07-11T08:16:03.602Z,4.27
2018-07-11T08:18:32.339Z,4.63
2018-07-11T08:21:01.078Z,5.20
2018-07-11T08:25:42.374Z,4.87
2018-07-11T08:28:32.131Z,3.63
2018-07-11T08:31:11.815Z,4.13
2018-07-11T08:34:11.295Z,2.97
2018-07-11T08:38:56.105Z,3.53
2018-07-11T08:41:38.578Z,2.90
2018-07-11T08:44:18.724Z,3.35
2018-07-11T08:46:58.234Z,2.72
2018-07-11T08:50:01.533Z,3.05
2018-07-11T08:53:16.361Z,2.50
2018-07-11T08:58:03.766Z,2.67
2018-07-11T09:01:44.639Z,2.87
2018-07-11T09:04:42.256Z,1.87
2018-07-11T09:07:25.038Z,2.77
2018-07-11T09:11:07.159Z,2.27
2018-07-11T09:14:00.712Z,1.90
2018-07-11T09:16:41.939Z,3.15
2018-07-11T09:19:28.443Z,2.15
2018-07-11T09:22:11.067Z,1.67
2018-07-11T09:24:45.234Z,2.00
2018-07-11T09:27:14.303Z,2.05
2018-07-11T09:29:43.948Z,2.20
2018-07-11T09:32:13.431Z,1.95
2018-07-11T09:34:42.699Z,2.37
2018-07-11T09:37:11.477Z,1.92
2018-07-11T09:39:40.814Z,3.58
2018-07-11T09:42:09.537Z,4.05
2018-07-11T09:44:39.281Z,3.15
2018-07-11T09:47:13.065Z,2.20
2018-07-11T09:49:41.804Z,2.30
2018-07-11T09:52:10.570Z,2.60
2018-07-11T09:54:39.287Z,2.60
2018-07-11T09:57:08.015Z,2.02
2018-07-11T09:59:36.789Z,2.70
2018-07-11T10:02:05.552Z,2.10
2018-07-11T10:04:34.517Z,2.20
2018-07-11T10:07:04.445Z,2.05
2018-07-11T10:09:33.180Z,2.40
2018-07-11T10:12:01.912Z,2.40
2018-07-11T10:14:30.791Z,2.25
2018-07-11T10:16:59.568Z,3.58
2018-07-11T10:19:28.278Z,3.75
2018-07-11T10:21:57.010Z,2.83
2018-07-11T10:24:25.730Z,2.40
2018-07-11T10:26:54.470Z,2.75
2018-07-11T10:29:23.257Z,2.00
2018-07-11T10:31:51.981Z,2.15
2018-07-11T10:34:20.708Z,2.22
2018-07-11T10:36:49.575Z,1.98
2018-07-11T10:39:18.286Z,1.98
2018-07-11T10:41:47.176Z,2.17
2018-07-11T10:44:15.878Z,2.77
2018-07-11T10:46:44.622Z,3.15
2018-07-11T10:49:13.566Z,3.05
2018-07-11T10:51:42.293Z,2.62
2018-07-11T10:54:11.046Z,2.55
2018-07-11T10:56:39.745Z,2.62
2018-07-11T10:59:08.452Z,3.22
2018-07-11T11:01:37.183Z,2.92
2018-07-11T11:04:05.890Z,3.42
2018-07-11T11:06:34.654Z,2.55
2018-07-11T11:09:03.671Z,3.22
2018-07-11T11:11:32.394Z,3.00
2018-07-11T11:14:01.138Z,2.70
2018-07-11T11:16:29.878Z,2.47
2018-07-11T11:18:58.575Z,2.87
2018-07-11T11:21:27.318Z,2.70
2018-07-11T11:23:56.066Z,3.33
2018-07-11T11:26:24.862Z,2.40
2018-07-11T11:28:53.662Z,3.45
2018-07-11T11:31:22.351Z,2.67
2018-07-11T11:33:51.149Z,3.05
2018-07-11T11:36:19.845Z,3.70
2018-07-11T11:38:48.669Z,3.35
2018-07-11T11:41:17.405Z,3.65
2018-07-11T11:43:46.172Z,2.55
2018-07-11T11:46:14.938Z,2.20
2018-07-11T11:48:43.848Z,2.72
2018-07-11T11:51:12.537Z,3.40
2018-07-11T11:53:41.217Z,2.55
2018-07-11T11:56:09.925Z,3.40
2018-07-11T11:58:38.691Z,2.80
2018-07-11T12:01:07.397Z,3.60
2018-07-11T12:03:36.256Z,3.05
2018-07-11T12:06:04.957Z,3.60
2018-07-11T12:08:33.653Z,4.12
2018-07-11T12:11:02.390Z,2.80
2018-07-11T12:13:31.242Z,3.72
2018-07-11T12:16:00.029Z,3.67
2018-07-11T12:18:28.794Z,3.67
2018-07-11T12:20:59.077Z,3.87
2018-07-11T12:23:27.825Z,4.05
2018-07-11T12:26:06.725Z,4.55
2018-07-11T12:28:35.673Z,4.28
2018-07-11T12:31:05.069Z,3.83
2018-07-11T12:33:34.201Z,3.42
2018-07-11T12:36:03.138Z,5.05
2018-07-11T12:38:31.870Z,3.27
2018-07-11T12:41:00.609Z,3.90
2018-07-11T12:43:29.341Z,4.27
2018-07-11T12:45:58.542Z,5.30
2018-07-11T12:48:32.374Z,4.40
2018-07-11T12:51:01.085Z,4.40
2018-07-11T12:53:30.166Z,4.00
2018-07-11T12:55:59.323Z,4.03
2018-07-11T12:58:28.379Z,4.87
2018-07-11T13:00:57.207Z,4.20
2018-07-11T13:03:26.414Z,5.30
2018-07-11T13:05:55.263Z,4.50
2018-07-11T13:08:23.997Z,4.93
2018-07-11T13:10:52.721Z,4.30
2018-07-11T13:13:21.780Z,5.47
2018-07-11T13:15:50.509Z,5.43
2018-07-11T13:18:19.378Z,5.07
2018-07-11T13:20:48.117Z,4.40
2018-07-11T13:23:16.813Z,4.60
2018-07-11T13:25:45.546Z,5.00
2018-07-11T13:28:14.245Z,4.00
2018-07-11T13:30:43.126Z,4.70
2018-07-11T13:33:11.810Z,4.50
2018-07-11T13:35:40.513Z,3.90
2018-07-11T13:38:12.008Z,5.10
2018-07-11T13:40:40.709Z,4.50
2018-07-11T13:43:10.118Z,5.20
2018-07-11T13:45:38.873Z,4.80
2018-07-11T13:48:08.541Z,3.23
2018-07-11T13:50:37.271Z,4.37
2018-07-11T13:53:05.981Z,4.33
2018-07-11T13:55:34.705Z,5.07
2018-07-11T13:58:03.629Z,4.50
2018-07-11T14:00:33.477Z,4.60
2018-07-11T14:03:02.706Z,3.77
2018-07-11T14:05:31.725Z,4.13
2018-07-11T14:08:00.432Z,4.40
2018-07-11T14:10:29.170Z,4.50
2018-07-11T14:12:57.927Z,4.27
2018-07-11T14:15:26.666Z,3.90
2018-07-11T14:17:55.414Z,4.30
2018-07-11T14:20:24.178Z,4.50
2018-07-11T14:22:52.987Z,4.10
2018-07-11T14:25:22.098Z,4.97
2018-07-11T14:27:51.565Z,4.03
2018-07-11T14:30:24.669Z,4.40
2018-07-11T14:32:56.564Z,3.50
2018-07-11T14:35:25.358Z,4.40
2018-07-11T14:37:54.101Z,6.40
2018-07-11T14:40:23.002Z,3.93
2018-07-11T14:42:51.696Z,4.10
2018-07-11T14:45:20.537Z,3.90
2018-07-11T14:47:54.305Z,4.30
2018-07-11T14:50:23.038Z,4.50
2018-07-11T14:52:52.136Z,4.67
2018-07-11T14:55:21.124Z,4.57
2018-07-11T14:57:50.553Z,4.33
2018-07-11T15:00:19.253Z,4.20
2018-07-11T15:02:47.970Z,4.70
2018-07-11T15:05:16.684Z,3.83
2018-07-11T15:07:45.469Z,4.30
2018-07-11T15:10:14.360Z,4.30
2018-07-11T15:12:43.194Z,3.23
2018-07-11T15:15:11.885Z,3.80
2018-07-11T15:17:40.585Z,3.50
2018-07-11T15:20:09.366Z,4.20
2018-07-11T15:22:38.113Z,4.03
2018-07-11T15:25:06.826Z,4.87
2018-07-11T15:27:35.545Z,3.93
2018-07-11T15:30:04.260Z,4.60
2018-07-11T15:32:33.462Z,4.37
2018-07-11T15:35:02.179Z,4.37
2018-07-11T15:37:30.970Z,3.97
2018-07-11T15:39:59.934Z,4.23
2018-07-11T15:42:28.657Z,4.17
2018-07-11T15:44:57.430Z,3.70
2018-07-11T15:47:26.445Z,4.97
2018-07-11T15:49:55.174Z,3.57
2018-07-11T15:52:25.645Z,4.50
2018-07-11T15:54:57.988Z,4.07
2018-07-11T15:57:33.243Z,3.93
2018-07-11T16:00:04.638Z,4.90
2018-07-11T16:02:34.461Z,3.90
2018-07-11T16:05:03.426Z,3.80
2018-07-11T16:07:35.942Z,4.27
2018-07-11T16:10:04.797Z,4.80
2018-07-11T16:12:33.518Z,3.90
2018-07-11T16:15:02.225Z,4.17
2018-07-11T16:17:30.939Z,4.50
2018-07-11T16:19:59.675Z,4.83
2018-07-11T16:22:28.431Z,3.77
2018-07-11T16:24:57.173Z,4.30
2018-07-11T16:27:25.881Z,4.57
2018-07-11T16:29:54.621Z,3.90
2018-07-11T16:32:23.308Z,4.73
2018-07-11T16:34:51.997Z,4.50
2018-07-11T16:37:20.810Z,4.80
2018-07-11T16:39:49.510Z,3.87
2018-07-11T16:42:19.632Z,5.47
2018-07-11T16:44:49.021Z,3.30
2018-07-11T16:47:17.733Z,4.30
2018-07-11T16:49:46.613Z,4.40
2018-07-11T16:52:15.333Z,4.90
2018-07-11T16:54:44.516Z,4.23
2018-07-11T16:57:16.411Z,3.70
2018-07-11T16:59:50.921Z,4.60
2018-07-11T17:02:23.578Z,5.10
2018-07-11T17:04:54.369Z,3.50
2018-07-11T17:07:25.041Z,5.37
2018-07-11T17:09:56.429Z,5.50
2018-07-11T17:12:25.761Z,4.90
2018-07-11T17:14:58.672Z,5.77
2018-07-11T17:17:32.858Z,4.57
2018-07-11T17:20:07.110Z,5.30
2018-07-11T17:22:50.431Z,4.90
2018-07-11T17:25:21.040Z,6.00
2018-07-11T17:27:58.056Z,4.90
2018-07-11T17:30:29.323Z,6.50
2018-07-11T17:32:58.097Z,8.33
2018-07-11T17:35:26.845Z,5.70
2018-07-11T17:37:56.159Z,6.70
2018-07-11T17:40:25.762Z,8.70
2018-07-11T17:42:55.012Z,6.20
2018-07-11T17:45:24.015Z,5.70
2018-07-11T17:48:20.595Z,7.13
2018-07-11T17:50:50.320Z,5.73
2018-07-11T17:53:20.964Z,5.83
2018-07-11T17:56:12.290Z,5.60
2018-07-11T17:58:57.193Z,6.57
2018-07-11T18:01:38.850Z,7.10
2018-07-11T18:04:52.221Z,7.03
2018-07-11T18:07:29.933Z,10.80
2018-07-11T18:10:05.662Z,14.50
2018-07-11T18:12:51.163Z,6.80
2018-07-11T18:15:42.469Z,6.43
2018-07-11T18:18:24.890Z,7.37
2018-07-11T18:21:05.081Z,8.43
2018-07-11T18:24:17.035Z,7.00
2018-07-11T18:28:54.509Z,9.67
2018-07-11T18:31:34.327Z,8.50
2018-07-11T18:34:21.524Z,8.53
2018-07-11T18:37:01.605Z,8.07
2018-07-11T18:39:59.797Z,7.60
2018-07-11T18:42:43.761Z,6.70
2018-07-11T18:45:31.746Z,8.03
2018-07-11T18:48:15.268Z,8.60
2018-07-11T18:51:26.456Z,7.30
2018-07-11T18:54:07.974Z,7.40
2018-07-11T18:56:43.677Z,6.97
2018-07-11T18:59:55.180Z,8.63
2018-07-11T19:03:10.459Z,6.70
2018-07-11T19:05:56.602Z,7.17
2018-07-11T19:08:36.477Z,7.50
2018-07-11T19:11:13.155Z,7.00
2018-07-11T19:13:45.553Z,7.30
2018-07-11T19:16:19.550Z,6.67
2018-07-11T19:19:27.317Z,6.93
2018-07-11T19:22:18.633Z,7.03
2018-07-11T19:27:05.316Z,7.07
2018-07-11T19:29:52.362Z,7.83
2018-07-11T19:33:34.233Z,8.83
2018-07-11T19:38:21.773Z,7.40
2018-07-11T19:40:57.813Z,7.37
2018-07-11T19:45:41.564Z,7.60
2018-07-11T19:48:26.413Z,6.80
2018-07-11T19:53:27.733Z,7.40
2018-07-11T19:56:10.021Z,6.73
2018-07-11T19:58:38.760Z,7.33
2018-07-11T20:01:07.457Z,6.90
2018-07-11T20:03:36.197Z,7.73
2018-07-11T20:06:04.918Z,7.97
2018-07-11T20:08:33.647Z,7.83
2018-07-11T20:11:02.668Z,7.90
2018-07-11T20:13:31.393Z,8.50
2018-07-11T20:16:00.214Z,7.93
2018-07-11T20:18:28.949Z,7.70
2018-07-11T20:20:57.688Z,7.27
2018-07-11T20:23:26.420Z,7.80
2018-07-11T20:25:55.169Z,9.30
2018-07-11T20:28:23.893Z,7.40
2018-07-11T20:30:52.694Z,8.83
2018-07-11T20:33:21.433Z,7.90
2018-07-11T20:35:50.149Z,7.70
2018-07-11T20:38:19.113Z,9.00
2018-07-11T20:40:48.209Z,6.97
2018-07-11T20:43:17.098Z,7.60
2018-07-11T20:45:45.985Z,8.47
2018-07-11T20:48:14.722Z,7.67
2018-07-11T20:50:43.433Z,7.33
2018-07-11T20:53:12.134Z,8.37
2018-07-11T20:55:40.822Z,7.23
2018-07-11T20:58:20.540Z,8.43
2018-07-11T21:01:00.406Z,8.23
2018-07-11T21:07:46.427Z,8.30
2018-07-11T21:10:36.440Z,8.13
2018-07-11T21:13:31.118Z,10.23
2018-07-11T21:16:10.170Z,10.00
2018-07-11T21:19:00.346Z,9.83
2018-07-11T21:21:29.125Z,9.00
2018-07-11T21:23:57.830Z,8.10
2018-07-11T21:26:26.534Z,7.40
2018-07-11T21:28:55.275Z,8.70
2018-07-11T21:31:24.474Z,9.03
2018-07-11T21:33:53.637Z,9.30
2018-07-11T21:36:22.829Z,9.30
2018-07-11T21:38:52.333Z,7.77
2018-07-11T21:41:21.425Z,7.93
2018-07-11T21:43:50.773Z,8.07
2018-07-11T21:46:20.093Z,7.60
2018-07-11T21:48:49.349Z,6.97
2018-07-11T21:51:18.431Z,8.10
2018-07-11T21:53:47.723Z,8.20
2018-07-11T21:56:16.797Z,7.20
2018-07-11T21:58:45.582Z,8.00
2018-07-11T22:01:14.294Z,6.90
2018-07-11T22:03:42.994Z,8.97
2018-07-11T22:06:11.794Z,7.83
2018-07-11T22:08:40.557Z,7.70
2018-07-11T22:11:09.474Z,7.80
2018-07-11T22:13:38.201Z,8.03
2018-07-11T22:16:06.921Z,8.33
2018-07-11T22:18:38.282Z,7.47
2018-07-11T22:21:06.760Z,8.97
2018-07-11T22:23:34.175Z,8.13
2018-07-11T22:26:01.843Z,8.17
2018-07-11T22:28:29.275Z,8.20
2018-07-11T22:30:56.693Z,8.70
2018-07-11T22:33:24.248Z,8.70
2018-07-11T22:35:51.641Z,7.13
2018-07-11T22:38:19.054Z,9.10
2018-07-11T22:40:46.893Z,8.60
2018-07-11T22:43:14.338Z,7.63
2018-07-11T22:45:41.741Z,7.40
2018-07-11T22:48:09.140Z,6.47
2018-07-11T22:50:36.541Z,8.27
2018-07-11T22:53:03.947Z,8.13
2018-07-11T22:55:31.407Z,7.17
2018-07-11T22:57:58.819Z,8.07
2018-07-11T23:00:26.266Z,8.80
2018-07-11T23:02:53.675Z,8.10
2018-07-11T23:05:21.094Z,7.77
2018-07-11T23:07:48.489Z,7.73
2018-07-11T23:10:15.901Z,7.67
2018-07-11T23:12:43.331Z,8.07
2018-07-11T23:15:10.745Z,7.03
2018-07-11T23:17:38.141Z,7.40
2018-07-11T23:20:05.571Z,9.00
2018-07-11T23:22:33.008Z,7.33
2018-07-11T23:25:00.397Z,7.43
2018-07-11T23:27:27.803Z,9.23
2018-07-11T23:29:55.211Z,7.30
2018-07-11T23:32:22.617Z,7.10
2018-07-11T23:34:50.009Z,8.50
2018-07-11T23:37:17.405Z,8.83
2018-07-11T23:39:44.800Z,8.50
2018-07-11T23:42:12.198Z,8.20
2018-07-11T23:44:39.594Z,9.23
2018-07-11T23:47:07.003Z,9.30
2018-07-11T23:49:34.440Z,9.67
2018-07-11T23:52:01.841Z,7.97
2018-07-11T23:54:29.246Z,8.20
2018-07-11T23:56:56.649Z,8.20
2018-07-11T23:59:24.046Z,8.10
